Time;durP1;ratioP1;P1;durP2;ratioP2;P2;SDS_P1;SDS_P2;PMS_P1;PMS_P2;Temp;Humidity;BMP_temperature;BMP_pressure;BME280_temperature;BME280_humidity;BME280_pressure;Samples;Min_cycle;Max_cycle;Signal;HPM_P1;HPM_P2
2022/04/17 00:00:58;;;;;;;0.00;0.00;;;;;;;;;;4975503;28;20253;-65
2022/04/17 00:03:25;;;;;;;0.00;0.00;;;;;;;;;;4976269;28;20230;-66
2022/04/17 00:05:54;;;;;;;0.00;0.00;;;;;;;;;;4976324;28;20660;-66
2022/04/17 00:08:21;;;;;;;0.43;0.33;;;;;;;;;;4976450;28;20209;-66
2022/04/17 00:10:49;;;;;;;0.63;0.40;;;;;;;;;;4976327;28;20209;-66
2022/04/17 00:13:16;;;;;;;0.00;0.00;;;;;;;;;;4976106;28;20199;-66
2022/04/17 00:15:43;;;;;;;0.00;0.00;;;;;;;;;;4976329;28;20202;-65
2022/04/17 00:18:11;;;;;;;0.00;0.00;;;;;;;;;;4975528;28;20206;-66
2022/04/17 00:20:39;;;;;;;0.13;0.13;;;;;;;;;;4975979;28;20285;-65
2022/04/17 00:23:09;;;;;;;3.03;1.33;;;;;;;;;;4976064;28;20230;-65
2022/04/17 00:25:37;;;;;;;0.40;0.10;;;;;;;;;;4976206;28;20283;-67
2022/04/17 00:28:06;;;;;;;0.00;0.00;;;;;;;;;;4976081;28;20574;-67
2022/04/17 00:30:33;;;;;;;0.00;0.00;;;;;;;;;;4975903;28;20687;-65
2022/04/17 00:33:00;;;;;;;0.43;0.43;;;;;;;;;;4975751;28;20209;-66
2022/04/17 00:35:28;;;;;;;0.87;0.57;;;;;;;;;;4974926;28;20607;-65
2022/04/17 00:37:55;;;;;;;1.10;0.63;;;;;;;;;;4975909;28;20206;-65
2022/04/17 00:40:24;;;;;;;0.20;0.20;;;;;;;;;;4975962;28;20198;-65
2022/04/17 00:42:53;;;;;;;0.10;0.10;;;;;;;;;;4975742;28;20598;-64
2022/04/17 00:45:20;;;;;;;1.53;1.43;;;;;;;;;;4975519;28;20209;-67
2022/04/17 00:47:48;;;;;;;0.00;0.00;;;;;;;;;;4975516;28;20240;-66
2022/04/17 00:50:15;;;;;;;0.00;0.00;;;;;;;;;;4975806;28;20202;-65
2022/04/17 00:52:44;;;;;;;0.33;0.33;;;;;;;;;;4975119;28;20206;-65
2022/04/17 00:55:12;;;;;;;0.00;0.00;;;;;;;;;;4975286;28;20202;-67
2022/04/17 00:57:42;;;;;;;0.10;0.10;;;;;;;;;;4975466;28;20199;-65
2022/04/17 01:00:10;;;;;;;0.00;0.00;;;;;;;;;;4975042;28;20723;-65
2022/04/17 01:02:37;;;;;;;0.00;0.00;;;;;;;;;;4975390;28;20230;-65
2022/04/17 01:05:05;;;;;;;0.10;0.10;;;;;;;;;;4975317;28;20198;-66
2022/04/17 01:07:32;;;;;;;0.00;0.00;;;;;;;;;;4975173;28;20207;-64
2022/04/17 01:09:59;;;;;;;1.57;1.50;;;;;;;;;;4974160;28;20672;-64
2022/04/17 01:12:27;;;;;;;0.00;0.00;;;;;;;;;;4975236;28;20198;-66
2022/04/17 01:14:56;;;;;;;0.00;0.00;;;;;;;;;;4974989;28;20234;-67
2022/04/17 01:17:23;;;;;;;0.00;0.00;;;;;;;;;;4974774;28;20634;-65
2022/04/17 01:19:51;;;;;;;0.83;0.83;;;;;;;;;;4975279;28;20236;-65
2022/04/17 01:22:21;;;;;;;0.10;0.10;;;;;;;;;;4974937;28;20293;-65
2022/04/17 01:27:42;;;;;;;0.00;0.00;;;;;;;;;;4942056;28;20681;-65
2022/04/17 01:30:10;;;;;;;0.00;0.00;;;;;;;;;;4955579;29;20277;-65
2022/04/17 01:32:37;;;;;;;0.00;0.00;;;;;;;;;;4963251;28;20699;-67
2022/04/17 01:35:05;;;;;;;0.00;0.00;;;;;;;;;;4974746;28;20214;-65
2022/04/17 01:37:34;;;;;;;0.00;0.00;;;;;;;;;;4974513;28;20203;-67
2022/04/17 01:40:01;;;;;;;0.00;0.00;;;;;;;;;;4974637;28;20797;-65
2022/04/17 01:42:29;;;;;;;13.47;7.13;;;;;;;;;;4974702;28;20256;-65
2022/04/17 01:44:56;;;;;;;0.83;0.53;;;;;;;;;;4973968;28;20587;-65
2022/04/17 01:47:24;;;;;;;0.00;0.00;;;;;;;;;;4974344;28;20209;-66
2022/04/17 01:49:51;;;;;;;0.00;0.00;;;;;;;;;;4974557;28;20691;-66
2022/04/17 01:52:18;;;;;;;0.00;0.00;;;;;;;;;;4974411;28;20293;-66
2022/04/17 01:54:47;;;;;;;0.00;0.00;;;;;;;;;;4974639;28;20293;-66
2022/04/17 01:57:14;;;;;;;0.20;0.20;;;;;;;;;;4974119;28;20206;-66
2022/04/17 01:59:42;;;;;;;0.00;0.00;;;;;;;;;;4973668;28;20206;-65
2022/04/17 02:02:09;;;;;;;0.00;0.00;;;;;;;;;;4974256;28;20213;-66
2022/04/17 02:04:37;;;;;;;0.10;0.10;;;;;;;;;;4974125;28;20226;-66
2022/04/17 02:07:04;;;;;;;0.33;0.33;;;;;;;;;;4974003;28;20202;-66
2022/04/17 02:09:32;;;;;;;0.00;0.00;;;;;;;;;;4973960;28;20237;-66
2022/04/17 02:12:00;;;;;;;0.00;0.00;;;;;;;;;;4974215;28;20198;-66
2022/04/17 02:14:28;;;;;;;0.00;0.00;;;;;;;;;;4974208;28;20204;-67
2022/04/17 02:16:57;;;;;;;0.27;0.27;;;;;;;;;;4973291;28;20198;-66
2022/04/17 02:19:24;;;;;;;0.03;0.03;;;;;;;;;;4973662;28;20198;-65
2022/04/17 02:21:52;;;;;;;0.00;0.00;;;;;;;;;;4973483;28;20207;-65
2022/04/17 02:24:19;;;;;;;0.00;0.00;;;;;;;;;;4974047;28;20234;-67
2022/04/17 02:26:46;;;;;;;0.00;0.00;;;;;;;;;;4973639;28;20202;-67
2022/04/17 02:29:15;;;;;;;0.00;0.00;;;;;;;;;;4973580;28;20296;-67
2022/04/17 02:31:42;;;;;;;0.63;0.63;;;;;;;;;;4973622;28;20225;-66
2022/04/17 02:34:10;;;;;;;0.00;0.00;;;;;;;;;;4973133;28;20206;-66
2022/04/17 02:36:37;;;;;;;0.00;0.00;;;;;;;;;;4973714;28;20198;-66
2022/04/17 02:39:04;;;;;;;0.00;0.00;;;;;;;;;;4973879;28;20198;-65
2022/04/17 02:41:32;;;;;;;0.00;0.00;;;;;;;;;;4973419;28;20198;-66
2022/04/17 02:43:59;;;;;;;0.00;0.00;;;;;;;;;;4973604;28;20237;-66
2022/04/17 02:49:13;;;;;;;0.00;0.00;;;;;;;;;;4973378;28;20678;-66
2022/04/17 02:51:41;;;;;;;0.57;0.57;;;;;;;;;;4973062;28;20289;-65
2022/04/17 02:54:08;;;;;;;0.00;0.00;;;;;;;;;;4973452;28;20289;-66
2022/04/17 02:56:36;;;;;;;0.00;0.00;;;;;;;;;;4980610;28;20668;-66
2022/04/17 02:59:03;;;;;;;0.00;0.00;;;;;;;;;;4978809;28;20198;-66
2022/04/17 03:07:02;;;;;;;0.00;0.00;;;;;;;;;;4973329;28;20201;-65
2022/04/17 03:09:29;;;;;;;0.00;0.00;;;;;;;;;;4972521;28;20222;-65
2022/04/17 03:11:56;;;;;;;0.00;0.00;;;;;;;;;;4973450;28;20210;-65
2022/04/17 03:14:24;;;;;;;0.00;0.00;;;;;;;;;;4973474;28;20209;-65
2022/04/17 03:16:53;;;;;;;0.00;0.00;;;;;;;;;;4973210;28;20553;-65
2022/04/17 03:19:21;;;;;;;0.00;0.00;;;;;;;;;;4973044;28;20307;-65
2022/04/17 03:21:48;;;;;;;0.00;0.00;;;;;;;;;;4973035;28;20293;-66
2022/04/17 03:24:16;;;;;;;0.00;0.00;;;;;;;;;;4973099;28;20233;-65
2022/04/17 03:26:44;;;;;;;0.00;0.00;;;;;;;;;;4972687;28;20206;-65
2022/04/17 03:29:11;;;;;;;0.30;0.30;;;;;;;;;;4973077;28;20198;-65
2022/04/17 03:31:38;;;;;;;0.00;0.00;;;;;;;;;;4973514;28;20199;-65
2022/04/17 03:34:08;;;;;;;0.00;0.00;;;;;;;;;;4957798;28;20203;-66
2022/04/17 03:36:37;;;;;;;0.00;0.00;;;;;;;;;;4957812;28;20209;-66
2022/04/17 03:39:04;;;;;;;0.00;0.00;;;;;;;;;;4957807;28;20199;-66
2022/04/17 03:41:31;;;;;;;0.83;0.83;;;;;;;;;;4957336;29;20203;-66
2022/04/17 03:43:58;;;;;;;0.00;0.00;;;;;;;;;;4975621;28;20230;-66
2022/04/17 03:46:26;;;;;;;0.00;0.00;;;;;;;;;;4976844;28;20213;-67
2022/04/17 03:48:53;;;;;;;0.00;0.00;;;;;;;;;;4976638;28;20198;-66
2022/04/17 03:51:22;;;;;;;0.00;0.00;;;;;;;;;;4976553;28;20205;-66
2022/04/17 03:53:49;;;;;;;0.00;0.00;;;;;;;;;;4976973;28;20246;-64
2022/04/17 03:56:17;;;;;;;0.53;0.53;;;;;;;;;;4976615;28;20209;-67
2022/04/17 03:58:44;;;;;;;0.10;0.10;;;;;;;;;;4975768;28;20731;-66
2022/04/17 04:01:13;;;;;;;0.00;0.00;;;;;;;;;;4976056;28;20312;-66
2022/04/17 04:03:40;;;;;;;2.00;1.90;;;;;;;;;;4976261;28;20230;-67
2022/04/17 04:06:08;;;;;;;0.00;0.00;;;;;;;;;;4976344;28;20748;-67
2022/04/17 04:08:36;;;;;;;0.10;0.10;;;;;;;;;;4976250;28;20229;-66
2022/04/17 04:11:05;;;;;;;0.00;0.00;;;;;;;;;;4976622;28;20692;-66
2022/04/17 04:13:33;;;;;;;0.00;0.00;;;;;;;;;;4976100;28;20198;-66
2022/04/17 04:16:01;;;;;;;0.00;0.00;;;;;;;;;;4975379;28;20676;-67
2022/04/17 04:18:29;;;;;;;0.00;0.00;;;;;;;;;;4957163;29;20207;-67
2022/04/17 04:20:57;;;;;;;0.00;0.00;;;;;;;;;;4956821;29;20195;-67
2022/04/17 04:23:24;;;;;;;0.10;0.10;;;;;;;;;;4956627;29;20649;-65
2022/04/17 04:25:53;;;;;;;0.17;0.17;;;;;;;;;;4956937;28;20237;-68
2022/04/17 04:28:36;;;;;;;0.00;0.00;;;;;;;;;;4956714;29;20290;-67
2022/04/17 04:31:04;;;;;;;0.20;0.20;;;;;;;;;;4956574;29;20305;-65
2022/04/17 04:33:31;;;;;;;0.00;0.00;;;;;;;;;;4970644;28;20202;-67
2022/04/17 04:35:59;;;;;;;0.00;0.00;;;;;;;;;;4975978;28;20309;-66
2022/04/17 04:38:27;;;;;;;0.00;0.00;;;;;;;;;;4975860;28;20288;-67
2022/04/17 04:40:56;;;;;;;0.00;0.00;;;;;;;;;;4975822;28;20297;-65
2022/04/17 04:43:24;;;;;;;0.00;0.00;;;;;;;;;;4975038;28;20202;-65
2022/04/17 04:46:09;;;;;;;0.00;0.00;;;;;;;;;;4975850;28;20198;-66
2022/04/17 04:51:22;;;;;;;1.10;0.63;;;;;;;;;;4974761;28;20292;-67
2022/04/17 04:53:50;;;;;;;0.00;0.00;;;;;;;;;;4975542;28;20240;-65
2022/04/17 04:56:18;;;;;;;0.00;0.00;;;;;;;;;;4975702;28;20210;-66
2022/04/17 04:58:46;;;;;;;0.00;0.00;;;;;;;;;;4975486;28;20250;-65
2022/04/17 05:01:13;;;;;;;0.00;0.00;;;;;;;;;;4975052;28;20230;-65
2022/04/17 05:03:41;;;;;;;0.00;0.00;;;;;;;;;;4975422;28;20230;-65
2022/04/17 05:06:08;;;;;;;0.87;0.57;;;;;;;;;;4975456;28;20209;-65
2022/04/17 05:08:36;;;;;;;0.00;0.00;;;;;;;;;;4974591;28;20277;-65
2022/04/17 05:11:03;;;;;;;0.00;0.00;;;;;;;;;;4975466;28;20210;-64
2022/04/17 05:13:32;;;;;;;0.00;0.00;;;;;;;;;;4975074;28;20287;-65
2022/04/17 05:15:59;;;;;;;2.00;1.90;;;;;;;;;;4975036;28;20221;-65
2022/04/17 05:18:26;;;;;;;0.00;0.00;;;;;;;;;;4975013;28;20622;-65
2022/04/17 05:20:55;;;;;;;0.77;0.77;;;;;;;;;;4975082;28;20210;-65
2022/04/17 05:23:26;;;;;;;0.00;0.00;;;;;;;;;;4974972;28;20210;-66
2022/04/17 05:25:54;;;;;;;0.00;0.00;;;;;;;;;;4974399;28;20233;-66
2022/04/17 05:28:21;;;;;;;0.00;0.00;;;;;;;;;;4974983;28;20210;-66
2022/04/17 05:30:50;;;;;;;0.00;0.00;;;;;;;;;;4974669;28;20198;-65
2022/04/17 05:33:19;;;;;;;0.00;0.00;;;;;;;;;;4974344;28;20218;-65
2022/04/17 05:35:47;;;;;;;0.10;0.10;;;;;;;;;;4975022;28;20276;-65
2022/04/17 05:38:14;;;;;;;0.00;0.00;;;;;;;;;;4975007;28;20206;-65
2022/04/17 05:40:42;;;;;;;0.00;0.00;;;;;;;;;;4974324;28;20571;-66
2022/04/17 05:43:10;;;;;;;0.20;0.20;;;;;;;;;;4956822;28;20229;-66
2022/04/17 05:45:38;;;;;;;0.00;0.00;;;;;;;;;;4974420;28;20237;-66
2022/04/17 05:48:09;;;;;;;0.00;0.00;;;;;;;;;;4974780;28;20238;-66
2022/04/17 05:50:36;;;;;;;0.00;0.00;;;;;;;;;;4974748;28;20286;-66
2022/04/17 05:53:04;;;;;;;0.00;0.00;;;;;;;;;;4974497;28;20205;-65
2022/04/17 05:55:31;;;;;;;0.00;0.00;;;;;;;;;;4973230;28;20202;-65
2022/04/17 05:57:59;;;;;;;0.00;0.00;;;;;;;;;;4973680;28;20330;-65
2022/04/17 06:00:27;;;;;;;0.20;0.20;;;;;;;;;;4974185;28;20234;-65
2022/04/17 06:02:54;;;;;;;0.00;0.00;;;;;;;;;;4974492;28;20230;-64
2022/04/17 06:05:23;;;;;;;0.00;0.00;;;;;;;;;;4973985;28;20321;-65
2022/04/17 06:07:51;;;;;;;0.00;0.00;;;;;;;;;;4974262;28;20203;-65
2022/04/17 06:10:18;;;;;;;0.23;0.23;;;;;;;;;;4974100;28;20326;-65
2022/04/17 06:12:45;;;;;;;0.00;0.00;;;;;;;;;;4974329;28;20205;-65
2022/04/17 06:15:13;;;;;;;0.23;0.23;;;;;;;;;;4973277;28;20225;-65
2022/04/17 06:17:40;;;;;;;0.57;0.57;;;;;;;;;;4974129;28;20305;-65
2022/04/17 06:20:09;;;;;;;0.00;0.00;;;;;;;;;;4974169;28;20210;-65
2022/04/17 06:22:38;;;;;;;0.03;0.03;;;;;;;;;;4973966;28;20238;-66
2022/04/17 06:25:06;;;;;;;1.10;0.17;;;;;;;;;;4973709;28;20584;-66
2022/04/17 06:27:38;;;;;;;0.00;0.00;;;;;;;;;;4973623;28;20202;-65
2022/04/17 06:30:12;;;;;;;0.00;0.00;;;;;;;;;;4973911;28;20202;-65
2022/04/17 06:32:40;;;;;;;0.65;0.65;;;;;;;;;;4973597;28;20204;-65
2022/04/17 06:35:08;;;;;;;0.10;0.10;;;;;;;;;;4973767;28;20694;-66
2022/04/17 06:37:47;;;;;;;0.30;0.17;;;;;;;;;;4973666;28;20671;-66
2022/04/17 06:40:17;;;;;;;0.00;0.00;;;;;;;;;;4973847;28;20206;-66
2022/04/17 06:42:44;;;;;;;0.00;0.00;;;;;;;;;;4973571;28;20656;-66
2022/04/17 06:45:12;;;;;;;0.00;0.00;;;;;;;;;;4973467;28;20234;-66
2022/04/17 06:47:39;;;;;;;0.00;0.00;;;;;;;;;;4973576;28;20198;-66
2022/04/17 06:50:07;;;;;;;0.30;0.30;;;;;;;;;;4972692;28;20261;-67
2022/04/17 06:52:34;;;;;;;0.00;0.00;;;;;;;;;;4973500;28;20667;-66
2022/04/17 06:55:04;;;;;;;0.00;0.00;;;;;;;;;;4973629;28;20577;-66
2022/04/17 06:57:31;;;;;;;1.40;1.35;;;;;;;;;;4973310;28;20292;-66
2022/04/17 06:59:59;;;;;;;0.15;0.15;;;;;;;;;;4973215;28;20256;-65
2022/04/17 07:02:26;;;;;;;0.63;0.63;;;;;;;;;;4973366;28;20292;-65
2022/04/17 07:04:54;;;;;;;0.22;0.22;;;;;;;;;;4973474;28;20234;-65
2022/04/17 07:07:23;;;;;;;0.05;0.05;;;;;;;;;;4971975;28;20206;-65
2022/04/17 07:09:50;;;;;;;0.00;0.00;;;;;;;;;;4973082;28;20699;-65
2022/04/17 07:12:19;;;;;;;0.20;0.20;;;;;;;;;;4972961;28;20209;-65
2022/04/17 07:14:47;;;;;;;0.75;0.65;;;;;;;;;;4972904;28;20220;-65
2022/04/17 07:17:15;;;;;;;0.00;0.00;;;;;;;;;;4972686;28;20226;-66
2022/04/17 07:19:42;;;;;;;0.10;0.10;;;;;;;;;;4973044;28;20202;-65
2022/04/17 07:22:10;;;;;;;0.00;0.00;;;;;;;;;;4973200;28;20673;-66
2022/04/17 07:24:39;;;;;;;0.05;0.05;;;;;;;;;;4972317;28;20269;-66
2022/04/17 07:27:07;;;;;;;0.10;0.10;;;;;;;;;;4973045;28;20293;-65
2022/04/17 07:29:36;;;;;;;0.00;0.00;;;;;;;;;;4973035;28;20202;-65
2022/04/17 07:32:04;;;;;;;0.00;0.00;;;;;;;;;;4972930;28;20285;-66
2022/04/17 07:34:31;;;;;;;0.20;0.10;;;;;;;;;;4973352;28;20548;-65
2022/04/17 07:36:59;;;;;;;0.00;0.00;;;;;;;;;;4973206;28;20569;-66
2022/04/17 07:39:26;;;;;;;0.20;0.10;;;;;;;;;;4972907;28;20210;-66
2022/04/17 07:41:54;;;;;;;0.30;0.30;;;;;;;;;;4972326;28;20202;-66
2022/04/17 07:44:23;;;;;;;0.10;0.10;;;;;;;;;;4972711;28;20199;-66
2022/04/17 07:46:52;;;;;;;0.00;0.00;;;;;;;;;;4972834;28;20668;-66
2022/04/17 07:49:21;;;;;;;0.35;0.35;;;;;;;;;;4972726;28;20202;-66
2022/04/17 07:51:48;;;;;;;0.00;0.00;;;;;;;;;;4972932;28;20695;-65
2022/04/17 07:54:15;;;;;;;0.00;0.00;;;;;;;;;;4972854;28;20202;-66
2022/04/17 07:56:43;;;;;;;0.10;0.10;;;;;;;;;;4972437;28;20198;-66
2022/04/17 07:59:10;;;;;;;0.55;0.52;;;;;;;;;;4953284;28;20206;-66
2022/04/17 08:01:39;;;;;;;0.00;0.00;;;;;;;;;;4953278;29;20318;-66
2022/04/17 08:04:08;;;;;;;0.00;0.00;;;;;;;;;;4953264;28;20207;-66
2022/04/17 08:06:36;;;;;;;0.35;0.35;;;;;;;;;;4953089;29;20231;-65
2022/04/17 08:09:04;;;;;;;0.88;0.70;;;;;;;;;;4953147;28;20239;-66
2022/04/17 08:11:31;;;;;;;0.05;0.05;;;;;;;;;;4953838;28;20660;-66
2022/04/17 08:13:59;;;;;;;0.00;0.00;;;;;;;;;;4973637;28;20234;-66
2022/04/17 08:16:27;;;;;;;0.13;0.08;;;;;;;;;;4973010;28;20579;-66
2022/04/17 08:18:54;;;;;;;0.05;0.05;;;;;;;;;;4973140;28;20205;-66
2022/04/17 08:21:23;;;;;;;0.00;0.00;;;;;;;;;;4975871;28;20205;-66
2022/04/17 08:23:51;;;;;;;0.00;0.00;;;;;;;;;;4975829;28;20197;-66
2022/04/17 08:26:18;;;;;;;0.52;0.52;;;;;;;;;;4975780;28;20266;-66
2022/04/17 08:28:45;;;;;;;0.10;0.10;;;;;;;;;;4975899;28;20198;-66
2022/04/17 08:31:13;;;;;;;0.25;0.25;;;;;;;;;;4974887;28;20237;-65
2022/04/17 08:33:41;;;;;;;0.00;0.00;;;;;;;;;;4975827;28;20566;-66
2022/04/17 08:36:09;;;;;;;0.17;0.17;;;;;;;;;;4975824;28;20214;-66
2022/04/17 08:38:38;;;;;;;0.57;0.57;;;;;;;;;;4975666;28;20293;-65
2022/04/17 08:41:06;;;;;;;1.95;0.85;;;;;;;;;;4976108;28;20205;-66
2022/04/17 08:43:33;;;;;;;0.00;0.00;;;;;;;;;;4975782;28;20203;-65
2022/04/17 08:46:01;;;;;;;0.20;0.20;;;;;;;;;;4975586;28;20229;-65
2022/04/17 08:48:29;;;;;;;0.00;0.00;;;;;;;;;;4974655;28;20214;-66
2022/04/17 08:50:57;;;;;;;0.00;0.00;;;;;;;;;;4975416;28;20198;-66
2022/04/17 08:53:25;;;;;;;0.00;0.00;;;;;;;;;;4975466;28;20209;-66
2022/04/17 08:55:54;;;;;;;0.25;0.25;;;;;;;;;;4975669;28;20209;-66
2022/04/17 08:58:22;;;;;;;0.43;0.32;;;;;;;;;;4975579;28;20289;-65
2022/04/17 09:00:50;;;;;;;0.20;0.20;;;;;;;;;;4975568;28;20655;-65
2022/04/17 09:03:17;;;;;;;0.03;0.03;;;;;;;;;;4974875;28;20209;-65
2022/04/17 09:05:45;;;;;;;0.00;0.00;;;;;;;;;;4974490;28;20234;-66
2022/04/17 09:08:14;;;;;;;0.00;0.00;;;;;;;;;;4975561;28;20195;-65
2022/04/17 09:10:42;;;;;;;0.00;0.00;;;;;;;;;;4975095;28;20203;-66
2022/04/17 09:13:10;;;;;;;0.10;0.10;;;;;;;;;;4975126;28;20205;-66
2022/04/17 09:15:38;;;;;;;0.00;0.00;;;;;;;;;;4975269;28;20211;-66
2022/04/17 09:18:08;;;;;;;0.00;0.00;;;;;;;;;;4974768;28;20563;-66
2022/04/17 09:20:35;;;;;;;0.32;0.20;;;;;;;;;;4975156;28;20203;-66
2022/04/17 09:23:03;;;;;;;0.00;0.00;;;;;;;;;;4974321;28;20256;-65
2022/04/17 09:25:30;;;;;;;1.02;0.38;;;;;;;;;;4974505;28;20284;-66
2022/04/17 09:27:59;;;;;;;0.22;0.22;;;;;;;;;;4974724;28;20667;-66
2022/04/17 09:30:29;;;;;;;2.08;0.60;;;;;;;;;;4974516;28;20199;-66
2022/04/17 09:32:58;;;;;;;0.00;0.00;;;;;;;;;;4975198;28;20645;-66
2022/04/17 09:35:25;;;;;;;1.60;1.52;;;;;;;;;;4974313;28;20245;-66
2022/04/17 09:37:57;;;;;;;0.22;0.22;;;;;;;;;;4974930;28;20194;-66
2022/04/17 09:40:24;;;;;;;0.52;0.52;;;;;;;;;;4974077;28;20277;-66
2022/04/17 09:43:08;;;;;;;0.13;0.13;;;;;;;;;;4974616;28;20198;-66
2022/04/17 09:45:56;;;;;;;0.00;0.00;;;;;;;;;;4974668;28;20328;-66
2022/04/17 09:48:24;;;;;;;0.10;0.10;;;;;;;;;;4974403;28;20545;-66
2022/04/17 09:50:51;;;;;;;0.00;0.00;;;;;;;;;;4974540;28;20567;-66
2022/04/17 09:53:30;;;;;;;0.00;0.00;;;;;;;;;;4974166;28;20664;-66
2022/04/17 09:56:05;;;;;;;0.00;0.00;;;;;;;;;;4973685;28;20286;-66
2022/04/17 09:58:33;;;;;;;1.45;1.02;;;;;;;;;;4974360;28;20210;-66
2022/04/17 10:01:03;;;;;;;0.20;0.20;;;;;;;;;;4974274;28;20701;-66
2022/04/17 10:03:31;;;;;;;0.00;0.00;;;;;;;;;;4974011;28;20253;-67
2022/04/17 10:05:58;;;;;;;0.38;0.38;;;;;;;;;;4974336;28;20234;-67
2022/04/17 10:08:27;;;;;;;0.05;0.05;;;;;;;;;;4974432;28;20207;-66
2022/04/17 10:10:54;;;;;;;0.00;0.00;;;;;;;;;;4974317;28;20218;-66
2022/04/17 10:13:22;;;;;;;0.30;0.30;;;;;;;;;;4973252;28;20203;-66
2022/04/17 10:15:51;;;;;;;0.30;0.30;;;;;;;;;;4974023;28;20290;-66
2022/04/17 10:18:23;;;;;;;0.20;0.20;;;;;;;;;;4973505;28;20194;-66
2022/04/17 10:20:52;;;;;;;1.17;0.25;;;;;;;;;;4973419;28;20289;-67
2022/04/17 10:23:19;;;;;;;0.00;0.00;;;;;;;;;;4973578;28;20202;-65
2022/04/17 10:25:48;;;;;;;0.00;0.00;;;;;;;;;;4973882;28;20236;-66
2022/04/17 10:28:17;;;;;;;0.03;0.03;;;;;;;;;;4973890;28;20231;-65
2022/04/17 10:30:53;;;;;;;0.00;0.00;;;;;;;;;;4972906;28;20198;-67
2022/04/17 10:33:38;;;;;;;1.17;0.70;;;;;;;;;;4973330;28;20240;-67
2022/04/17 10:36:17;;;;;;;0.30;0.25;;;;;;;;;;4973767;28;20205;-65
2022/04/17 10:38:46;;;;;;;1.00;1.00;;;;;;;;;;4973618;28;20202;-66
2022/04/17 10:41:15;;;;;;;3.03;1.02;;;;;;;;;;4972983;28;20568;-66
2022/04/17 10:43:58;;;;;;;0.60;0.25;;;;;;;;;;4973575;28;20202;-66
2022/04/17 10:46:26;;;;;;;0.00;0.00;;;;;;;;;;4973553;28;20280;-66
2022/04/17 10:48:57;;;;;;;0.10;0.10;;;;;;;;;;4972473;28;20245;-66
2022/04/17 10:51:25;;;;;;;7.07;6.53;;;;;;;;;;4973139;28;20628;-66
2022/04/17 10:53:54;;;;;;;0.28;0.28;;;;;;;;;;4973152;28;20209;-66
2022/04/17 10:56:21;;;;;;;0.38;0.38;;;;;;;;;;4973572;28;20202;-66
2022/04/17 10:58:53;;;;;;;0.08;0.08;;;;;;;;;;4973318;28;20206;-66
2022/04/17 11:01:39;;;;;;;0.17;0.17;;;;;;;;;;4972715;28;20581;-66
2022/04/17 11:04:18;;;;;;;0.10;0.10;;;;;;;;;;4972479;28;20564;-67
2022/04/17 11:06:46;;;;;;;0.20;0.20;;;;;;;;;;4973307;28;20264;-66
2022/04/17 11:09:15;;;;;;;0.15;0.15;;;;;;;;;;4973048;28;20241;-66
2022/04/17 11:11:44;;;;;;;0.20;0.20;;;;;;;;;;4973159;28;20293;-66
2022/04/17 11:14:13;;;;;;;0.30;0.30;;;;;;;;;;4973193;28;20222;-66
2022/04/17 11:16:41;;;;;;;0.57;0.57;;;;;;;;;;4973163;28;20202;-66
2022/04/17 11:19:11;;;;;;;0.20;0.20;;;;;;;;;;4972926;28;20195;-66
2022/04/17 11:21:42;;;;;;;0.20;0.20;;;;;;;;;;4972517;28;20214;-66
2022/04/17 11:24:10;;;;;;;0.47;0.47;;;;;;;;;;4973010;28;20198;-66
2022/04/17 11:26:56;;;;;;;0.20;0.20;;;;;;;;;;4972991;28;20324;-66
2022/04/17 11:29:34;;;;;;;0.63;0.63;;;;;;;;;;4972567;28;20667;-66
2022/04/17 11:32:02;;;;;;;0.15;0.15;;;;;;;;;;4953873;29;20224;-66
2022/04/17 11:34:42;;;;;;;0.57;0.52;;;;;;;;;;4953795;28;20214;-66
2022/04/17 11:37:11;;;;;;;0.00;0.00;;;;;;;;;;4953559;28;20682;-66
2022/04/17 11:39:38;;;;;;;0.10;0.10;;;;;;;;;;4969089;28;20591;-66
2022/04/17 11:42:07;;;;;;;0.00;0.00;;;;;;;;;;4973042;28;20205;-66
2022/04/17 11:44:34;;;;;;;0.60;0.57;;;;;;;;;;4973016;28;20668;-66
2022/04/17 11:47:02;;;;;;;0.90;0.90;;;;;;;;;;4972978;28;20225;-66
2022/04/17 11:49:32;;;;;;;0.10;0.10;;;;;;;;;;4972785;28;20202;-66
2022/04/17 11:52:12;;;;;;;0.70;0.60;;;;;;;;;;4972763;28;20206;-66
2022/04/17 11:54:40;;;;;;;0.00;0.00;;;;;;;;;;4976340;28;20234;-66
2022/04/17 11:57:08;;;;;;;0.73;0.65;;;;;;;;;;4976442;28;20556;-66
2022/04/17 11:59:45;;;;;;;0.08;0.08;;;;;;;;;;4976255;28;20203;-65
2022/04/17 12:02:14;;;;;;;1.35;1.10;;;;;;;;;;4976629;28;20205;-66
2022/04/17 12:04:43;;;;;;;0.05;0.05;;;;;;;;;;4976399;28;20198;-66
2022/04/17 12:07:12;;;;;;;2.72;1.13;;;;;;;;;;4976217;28;20230;-66
2022/04/17 12:09:40;;;;;;;0.28;0.28;;;;;;;;;;4976637;28;20202;-66
2022/04/17 12:12:11;;;;;;;0.77;0.55;;;;;;;;;;4975762;28;20209;-65
2022/04/17 12:14:39;;;;;;;0.47;0.47;;;;;;;;;;4976605;28;20209;-66
2022/04/17 12:17:07;;;;;;;0.32;0.32;;;;;;;;;;4976382;28;20249;-65
2022/04/17 12:19:34;;;;;;;0.03;0.03;;;;;;;;;;4976267;28;20206;-66
2022/04/17 12:22:06;;;;;;;1.55;0.20;;;;;;;;;;4976391;28;20319;-66
2022/04/17 12:24:34;;;;;;;0.00;0.00;;;;;;;;;;4976075;28;20198;-66
2022/04/17 12:27:02;;;;;;;0.80;0.80;;;;;;;;;;4976142;28;20230;-66
2022/04/17 12:29:29;;;;;;;0.13;0.10;;;;;;;;;;4975153;28;20238;-66
2022/04/17 12:31:57;;;;;;;0.32;0.32;;;;;;;;;;4975736;28;20206;-66
2022/04/17 12:34:26;;;;;;;0.13;0.13;;;;;;;;;;4976117;28;20199;-66
2022/04/17 12:36:54;;;;;;;1.65;1.45;;;;;;;;;;4975791;28;20727;-66
2022/04/17 12:39:32;;;;;;;1.98;0.20;;;;;;;;;;4975695;28;20285;-65
2022/04/17 12:42:01;;;;;;;0.63;0.63;;;;;;;;;;4975737;28;20202;-66
2022/04/17 12:44:35;;;;;;;0.35;0.25;;;;;;;;;;4975828;28;20289;-66
2022/04/17 12:47:11;;;;;;;0.00;0.00;;;;;;;;;;4974608;28;20288;-66
2022/04/17 12:49:39;;;;;;;0.55;0.55;;;;;;;;;;4975668;28;20296;-66
2022/04/17 12:52:06;;;;;;;0.10;0.10;;;;;;;;;;4975650;28;20194;-66
2022/04/17 12:54:35;;;;;;;0.60;0.60;;;;;;;;;;4975505;28;20209;-66
2022/04/17 12:57:05;;;;;;;0.80;0.70;;;;;;;;;;4975576;28;20206;-66
2022/04/17 12:59:43;;;;;;;3.47;1.48;;;;;;;;;;4975239;28;20226;-65
2022/04/17 13:02:14;;;;;;;0.95;0.95;;;;;;;;;;4975570;28;20574;-66
2022/04/17 13:04:42;;;;;;;0.22;0.22;;;;;;;;;;4974009;28;20206;-66
2022/04/17 13:07:11;;;;;;;1.13;1.05;;;;;;;;;;4974760;28;20230;-66
2022/04/17 13:09:39;;;;;;;0.73;0.45;;;;;;;;;;4975429;28;20202;-66
2022/04/17 13:12:10;;;;;;;0.15;0.15;;;;;;;;;;4975417;28;20241;-66
2022/04/17 13:14:56;;;;;;;0.22;0.22;;;;;;;;;;4975181;28;20205;-66
2022/04/17 13:17:23;;;;;;;0.52;0.52;;;;;;;;;;4974731;28;20208;-66
2022/04/17 13:19:50;;;;;;;0.50;0.50;;;;;;;;;;4974160;28;20208;-66
2022/04/17 13:22:18;;;;;;;0.15;0.10;;;;;;;;;;4975321;28;20285;-66
2022/04/17 13:24:45;;;;;;;3.78;1.52;;;;;;;;;;4975072;28;20205;-66
2022/04/17 13:27:15;;;;;;;1.30;0.28;;;;;;;;;;4974677;28;20232;-66
2022/04/17 13:29:44;;;;;;;0.00;0.00;;;;;;;;;;4974834;28;20614;-66
2022/04/17 13:32:12;;;;;;;0.52;0.52;;;;;;;;;;4974720;28;20261;-66
2022/04/17 13:34:42;;;;;;;0.00;0.00;;;;;;;;;;4975064;28;20205;-66
2022/04/17 13:39:54;;;;;;;0.98;0.70;;;;;;;;;;4974743;28;20300;-66
2022/04/17 13:42:24;;;;;;;0.20;0.20;;;;;;;;;;4974541;28;20667;-66
2022/04/17 13:44:52;;;;;;;0.00;0.00;;;;;;;;;;4974530;28;20250;-66
2022/04/17 13:47:19;;;;;;;0.03;0.03;;;;;;;;;;4974222;28;20324;-66
2022/04/17 13:49:47;;;;;;;1.15;1.10;;;;;;;;;;4974706;28;20212;-66
2022/04/17 13:52:14;;;;;;;0.68;0.65;;;;;;;;;;4974601;28;20256;-66
2022/04/17 13:54:42;;;;;;;1.45;1.35;;;;;;;;;;4973717;28;20210;-67
2022/04/17 13:57:09;;;;;;;0.25;0.25;;;;;;;;;;4974231;28;20293;-66
2022/04/17 13:59:38;;;;;;;1.35;1.25;;;;;;;;;;4974048;28;20206;-65
2022/04/17 14:02:06;;;;;;;0.00;0.00;;;;;;;;;;4974135;28;20248;-67
2022/04/17 14:04:33;;;;;;;0.20;0.20;;;;;;;;;;4970053;28;20207;-67
2022/04/17 14:07:02;;;;;;;0.52;0.52;;;;;;;;;;4954780;28;20262;-67
2022/04/17 14:09:32;;;;;;;0.10;0.10;;;;;;;;;;4954554;28;20673;-65
2022/04/17 14:11:59;;;;;;;0.00;0.00;;;;;;;;;;4965354;28;20233;-66
2022/04/17 14:14:28;;;;;;;0.75;0.52;;;;;;;;;;4974184;28;20202;-67
2022/04/17 14:16:57;;;;;;;0.30;0.30;;;;;;;;;;4973119;28;20285;-67
2022/04/17 14:19:24;;;;;;;0.45;0.38;;;;;;;;;;4973768;28;20290;-66
2022/04/17 14:21:52;;;;;;;0.05;0.00;;;;;;;;;;4973956;28;20633;-66
2022/04/17 14:24:19;;;;;;;0.10;0.10;;;;;;;;;;4973840;28;20198;-67
2022/04/17 14:26:46;;;;;;;0.45;0.17;;;;;;;;;;4974004;28;20229;-66
2022/04/17 14:29:14;;;;;;;1.33;0.75;;;;;;;;;;4972721;28;20206;-66
2022/04/17 14:31:41;;;;;;;0.00;0.00;;;;;;;;;;4973949;28;20206;-66
2022/04/17 14:34:10;;;;;;;0.35;0.35;;;;;;;;;;4973747;28;20560;-67
2022/04/17 14:36:38;;;;;;;15.60;2.65;;;;;;;;;;4973635;28;20727;-66
2022/04/17 14:39:05;;;;;;;1.98;0.80;;;;;;;;;;4973532;28;20198;-66
2022/04/17 14:41:33;;;;;;;0.38;0.28;;;;;;;;;;4973348;28;20202;-67
2022/04/17 14:44:01;;;;;;;0.10;0.10;;;;;;;;;;4973711;28;20619;-67
2022/04/17 14:46:28;;;;;;;0.00;0.00;;;;;;;;;;4972488;28;20289;-67
2022/04/17 14:48:56;;;;;;;0.00;0.00;;;;;;;;;;4973422;28;20198;-67
2022/04/17 14:51:24;;;;;;;1.45;0.45;;;;;;;;;;4973119;28;20290;-67
2022/04/17 14:53:52;;;;;;;0.00;0.00;;;;;;;;;;4973538;28;20194;-67
2022/04/17 14:56:20;;;;;;;0.30;0.22;;;;;;;;;;4973582;28;20289;-67
2022/04/17 14:58:48;;;;;;;0.35;0.35;;;;;;;;;;4973521;28;20228;-67
2022/04/17 15:01:15;;;;;;;0.00;0.00;;;;;;;;;;4973356;28;20325;-67
2022/04/17 15:03:43;;;;;;;0.75;0.70;;;;;;;;;;4972354;28;20234;-67
2022/04/17 15:06:11;;;;;;;0.00;0.00;;;;;;;;;;4973020;28;20663;-67
2022/04/17 15:08:40;;;;;;;0.20;0.20;;;;;;;;;;4973117;28;20721;-67